Latest Weather Observations for Port Hedland

IDW60801

Issued at 4:35 pm WST Saturday 22 November 2014 (issued every 30 minutes, with the page automatically refreshed every 10 minutes)

About weather observations | Map of weather stations | Latest weather observations for WA | Other Formats
Station Details ID: 004032 Name: PORT HEDLAND AIRPORT Lat: -20.37 Lon: 118.63 Height: 6.4 m
Data from the previous 72 hours. | See also: Recent months at Port Hedland
Date/Time
WST
Temp
°C
App
Temp
°C
Dew
Point
Rel
Hum
%
Delta-T
°C
Wind Press
QNH
hPa
Press
MSL
hPa
Rain
since 9 am
mm
Dir
 
Spd
km/h
Gust
km/h
Spd
kts
Gust
kts
22/04:30pm 31.4 28.6 16.3 40 9.5 W 26 33 14 18 1007.7 - 0.0
22/04:00pm 30.1 27.9 17.9 48 7.8 W 26 37 14 20 1007.7 - 0.0
22/03:30pm 30.6 28.7 19.3 51 7.4 WNW 28 35 15 19 1008.3 - 0.0
22/03:00pm 30.8 29.2 19.3 50 7.5 WNW 26 32 14 17 1008.3 1008.2 0.0
22/02:30pm 31.8 28.9 19.3 47 8.2 NW 33 39 18 21 1008.5 - 0.0
22/02:00pm 33.4 30.2 16.3 36 10.8 NW 28 35 15 19 1008.2 - 0.0
22/01:30pm 34.9 30.9 11.7 24 13.8 WNW 24 28 13 15 1008.3 - 0.0
22/01:00pm 33.4 30.8 17.7 39 10.1 WNW 28 37 15 20 1008.5 - 0.0
22/12:30pm 32.3 30.2 19.7 47 8.3 WNW 30 35 16 19 1008.6 - 0.0
22/12:00pm 34.0 33.0 19.7 43 9.5 WNW 24 28 13 15 1008.6 1008.5 0.0
22/11:30am 34.4 34.0 18.9 40 10.2 WNW 19 24 10 13 1009.0 - 0.0
22/11:00am 34.6 34.7 20.4 43 9.5 WNW 20 26 11 14 1009.5 - 0.0
22/10:30am 34.2 34.4 20.5 44 9.2 WNW 20 24 11 13 1010.1 - 0.0
22/10:00am 31.6 32.7 22.0 56 6.5 NNW 19 20 10 11 1010.5 - 0.0
22/09:30am 31.7 33.1 21.1 53 7.1 WNW 15 19 8 10 1010.4 - 0.0
22/09:00am 30.9 31.3 20.9 55 6.7 NW 20 24 11 13 1010.7 1010.6 0.0
22/08:30am 31.3 32.1 19.9 50 7.5 NW 15 20 8 11 1010.6 - 0.0
22/08:00am 31.7 30.9 16.0 38 9.8 W 15 20 8 11 1010.5 - 0.0
22/07:30am 29.9 29.7 18.4 50 7.4 W 17 22 9 12 1009.9 - 0.0
22/07:00am 29.1 29.1 19.8 57 6.1 W 19 26 10 14 1009.6 - 0.0
22/06:30am 26.9 27.9 21.0 70 3.9 WSW 17 20 9 11 1009.2 - 0.0
22/06:00am 25.8 27.7 21.4 76 2.9 WSW 13 15 7 8 1008.8 1008.7 0.0
22/05:30am 25.2 26.9 21.6 80 2.4 W 15 19 8 10 1008.4 - 0.0
22/05:00am 25.8 27.6 21.9 79 2.6 WSW 15 19 8 10 1008.2 - 0.0
22/04:30am 26.1 27.0 21.9 77 2.8 W 20 28 11 15 1008.0 - 0.0
22/04:00am 26.2 27.2 22.2 78 2.7 W 20 26 11 14 1007.9 - 0.0
22/03:30am 26.2 27.4 22.2 78 2.7 W 19 24 10 13 1007.5 - 0.0
22/03:00am 26.1 27.0 21.6 76 3.0 W 19 26 10 14 1007.4 1007.3 0.0
22/02:30am 26.2 26.5 20.7 71 3.6 W 20 24 11 13 1007.5 - 0.0
22/01:30am 26.4 26.6 20.6 70 3.8 W 20 28 11 15 1007.7 - 0.0
22/01:00am 26.1 27.5 21.1 74 3.3 W 15 20 8 11 1008.1 - 0.0
22/12:30am 26.3 26.7 20.7 71 3.7 WNW 19 24 10 13 1008.4 - 0.0
22/12:00am 26.5 26.4 19.9 67 4.3 W 20 26 11 14 1008.4 1008.3 0.0
 
Date/Time
WST
Temp
°C
App
Temp
°C
Dew
Point
Rel
Hum
%
Delta-T
°C
Wind Press
QNH
hPa
Press
MSL
hPa
Rain
since 9 am
mm
Dir
 
Spd
km/h
Gust
km/h
Spd
kts
Gust
kts
21/11:30pm 26.4 26.6 19.4 65 4.5 W 17 20 9 11 1008.8 - 0.0
21/11:00pm 26.8 26.3 19.2 63 4.9 W 20 24 11 13 1008.9 - 0.0
21/10:30pm 26.8 26.5 19.2 63 4.9 W 19 24 10 13 1009.2 - 0.0
21/10:00pm 27.2 27.5 19.5 62 5.0 W 17 20 9 11 1009.3 - 0.0
21/09:30pm 27.9 27.8 20.0 62 5.2 W 20 26 11 14 1009.1 - 0.0
21/09:00pm 28.1 27.6 20.0 61 5.3 WNW 22 28 12 15 1009.0 1008.9 0.0
21/08:30pm 28.3 28.0 19.2 57 5.9 WNW 19 24 10 13 1009.0 - 0.0
21/08:00pm 28.4 28.7 18.8 56 6.2 WNW 15 24 8 13 1008.9 - 0.0
21/07:30pm 28.6 27.5 18.7 55 6.4 WNW 22 28 12 15 1008.6 - 0.0
21/07:00pm 29.1 27.5 18.3 52 6.9 W 24 35 13 19 1008.4 - 0.0
21/06:30pm 29.7 26.9 17.4 47 7.8 WNW 28 35 15 19 1008.3 - 0.0
21/06:00pm 30.8 27.2 16.3 41 9.1 WNW 30 37 16 20 1008.1 1008.0 0.0
21/05:30pm 32.1 27.8 15.3 36 10.4 WNW 32 39 17 21 1007.8 - 0.0
21/05:00pm 33.3 27.8 12.6 28 12.4 WNW 33 43 18 23 1007.5 - 0.0
21/04:30pm 34.7 28.8 11.1 23 13.9 NW 33 43 18 23 1007.3 - 0.0
21/04:00pm 35.1 29.3 12.8 26 13.5 NW 35 43 19 23 1007.3 - 0.0
21/03:30pm 35.9 30.4 12.3 24 14.2 WNW 33 41 18 22 1007.2 - 0.0
21/03:00pm 36.6 30.9 13.0 24 14.4 NW 35 44 19 24 1007.6 1007.5 0.0
21/02:30pm 37.1 30.6 10.4 20 15.7 NW 35 44 19 24 1007.7 - 0.0
21/02:00pm 37.8 31.2 10.0 18 16.3 NW 35 43 19 23 1007.9 - 0.0
21/01:30pm 38.2 32.3 11.0 19 16.2 NW 33 43 18 23 1008.2 - 0.0
21/01:00pm 37.5 32.2 13.2 23 14.9 NW 33 43 18 23 1008.4 - 0.0
21/12:30pm 38.5 33.6 12.6 21 15.8 NW 30 37 16 20 1008.7 - 0.0
21/12:00pm 37.9 34.0 15.5 26 14.2 NW 30 37 16 20 1009.0 1008.9 0.0
21/11:30am 37.5 34.7 18.1 32 12.7 NW 30 35 16 19 1009.4 - 0.0
21/11:00am 37.2 35.8 20.5 37 11.3 NW 28 35 15 19 1009.6 - 0.0
21/10:30am 37.4 35.7 18.2 32 12.6 NW 24 32 13 17 1009.9 - 0.0
21/10:00am 38.2 36.6 15.9 26 14.2 NW 19 24 10 13 1010.1 - 0.0
21/09:30am 38.7 34.7 3.0 11 18.9 WSW 13 22 7 12 1010.4 - 0.0
21/09:00am 36.8 33.4 6.0 15 16.9 SW 13 19 7 10 1010.6 1010.5 0.0
21/08:30am 35.0 32.8 9.4 21 14.7 W 11 19 6 10 1010.7 - 0.0
21/08:00am 33.4 31.5 11.7 26 12.8 W 13 19 7 10 1010.7 - 0.0
21/07:30am 30.8 28.4 13.7 35 10.3 W 19 22 10 12 1010.5 - 0.0
21/07:00am 28.6 28.6 17.2 50 7.2 W 13 19 7 10 1010.3 - 0.0
21/06:30am 25.9 27.2 19.2 66 4.3 WSW 11 13 6 7 1010.0 - 0.0
21/06:00am 23.9 25.5 19.2 75 3.0 SW 9 11 5 6 1009.6 1009.5 0.0
21/05:30am 22.3 24.1 18.7 80 2.3 WSW 7 9 4 5 1009.2 - 0.0
21/05:00am 22.7 23.4 18.9 79 2.4 W 13 13 7 7 1008.8 - 0.0
21/04:30am 22.5 23.4 18.4 77 2.6 W 11 13 6 7 1008.7 - 0.0
21/04:00am 22.6 22.6 18.1 76 2.8 W 15 15 8 8 1008.4 - 0.0
21/03:30am 22.9 23.2 17.8 73 3.2 W 13 13 7 7 1008.5 - 0.0
21/03:00am 23.2 23.8 17.6 71 3.5 W 11 11 6 6 1008.5 1008.4 0.0
21/02:30am 24.0 24.3 17.9 68 3.8 W 13 13 7 7 1008.4 - 0.0
21/02:00am 25.2 25.2 18.1 64 4.5 WSW 15 17 8 9 1008.4 - 0.0
21/01:30am 25.6 26.1 18.4 64 4.6 W 13 17 7 9 1008.5 - 0.0
21/01:00am 25.4 25.3 17.9 63 4.7 W 15 17 8 9 1008.7 - 0.0
21/12:30am 26.1 25.6 16.9 57 5.7 W 15 19 8 10 1009.0 - 0.0
21/12:00am 26.8 25.4 16.5 53 6.4 W 19 24 10 13 1009.2 1009.1 0.0
 
Date/Time
WST
Temp
°C
App
Temp
°C
Dew
Point
Rel
Hum
%
Delta-T
°C
Wind Press
QNH
hPa
Press
MSL
hPa
Rain
since 9 am
mm
Dir
 
Spd
km/h
Gust
km/h
Spd
kts
Gust
kts
20/11:30pm 27.0 25.7 16.7 53 6.4 W 19 24 10 13 1009.6 - 0.0
20/11:00pm 27.2 26.6 17.5 55 6.1 W 17 20 9 11 1010.0 - 0.0
20/10:30pm 27.2 27.3 18.4 58 5.6 W 15 20 8 11 1010.1 - 0.0
20/10:00pm 28.0 27.8 18.5 56 6.1 W 17 24 9 13 1010.2 - 0.0
20/09:30pm 28.2 28.6 19.8 60 5.5 W 17 20 9 11 1010.2 - 0.0
20/09:00pm 28.5 29.1 20.3 61 5.4 W 17 20 9 11 1010.0 1009.9 0.0
20/08:30pm 29.1 29.2 20.3 59 5.8 WNW 20 26 11 14 1009.7 - 0.0
20/08:00pm 29.4 29.3 20.8 60 5.7 WNW 22 28 12 15 1009.5 - 0.0
20/07:30pm 29.7 29.1 20.5 57 6.1 WNW 24 32 13 17 1009.2 - 0.0
20/07:00pm 29.8 29.5 20.4 57 6.2 NW 22 28 12 15 1009.0 - 0.0
20/06:30pm 30.4 29.5 19.9 53 6.9 NW 24 30 13 16 1008.6 - 0.0
20/06:00pm 31.4 30.8 20.4 52 7.3 NW 24 32 13 17 1008.3 1008.2 0.0
20/05:30pm 32.4 31.2 20.0 48 8.2 NW 26 32 14 17 1008.1 - 0.0
20/05:00pm 33.2 31.7 20.3 46 8.6 NW 28 35 15 19 1007.9 - 0.0
20/04:30pm 33.9 31.4 19.7 43 9.4 NW 32 37 17 20 1007.7 - 0.0
20/04:00pm 34.3 33.1 20.1 43 9.5 NW 26 32 14 17 1007.9 - 0.0
20/03:30pm 35.2 33.5 19.7 40 10.3 NW 28 35 15 19 1007.9 - 0.0
20/03:00pm 36.8 33.6 18.2 33 12.2 NNW 32 39 17 21 1008.1 1008.0 0.0
20/02:30pm 37.1 34.0 17.6 31 12.7 NNW 30 37 16 20 1008.0 - 0.0
20/02:00pm 37.5 33.4 16.0 28 13.7 NNW 32 37 17 20 1008.2 - 0.0
20/01:30pm 39.3 34.3 10.8 18 17.0 NNW 28 33 15 18 1008.4 - 0.0
20/01:00pm 39.4 34.7 9.2 16 17.6 NNW 24 35 13 19 1008.8 - 0.0
20/12:30pm 40.3 35.9 10.4 16 17.8 N 24 33 13 18 1009.1 - 0.0
20/12:00pm 38.8 35.3 8.9 16 17.3 N 17 24 9 13 1009.5 1009.4 0.0
20/11:30am 38.0 34.6 11.4 20 15.9 NNE 20 24 11 13 1010.1 - 0.0
20/11:00am 37.2 34.6 13.9 25 14.4 NNE 20 26 11 14 1010.5 - 0.0
20/10:30am 36.3 34.1 16.0 30 12.9 N 22 26 12 14 1010.9 - 0.0
20/10:00am 38.3 35.2 7.2 15 17.5 E 13 22 7 12 1011.1 - 0.0
20/09:30am 37.7 34.7 7.6 16 17.0 ESE 13 20 7 11 1011.3 - 0.0
20/09:00am 36.5 33.2 9.5 19 15.6 SE 17 24 9 13 1011.6 1011.5 0.0
20/08:30am 35.4 31.7 9.5 20 14.9 SE 19 28 10 15 1011.6 - 0.0
20/08:00am 33.6 30.4 13.2 29 12.3 SE 22 28 12 15 1011.4 - 0.0
20/07:30am 32.1 32.1 18.0 43 9.1 SSE 15 20 8 11 1011.3 - 0.0
20/07:00am 29.1 31.1 20.8 61 5.5 S 11 15 6 8 1011.2 - 0.0
20/06:30am 26.7 30.2 22.9 79 2.6 SSW 9 13 5 7 1011.0 - 0.0
20/06:00am 24.5 28.3 22.7 90 1.2 SW 7 9 4 5 1010.6 1010.5 0.0
20/05:30am 23.5 26.8 21.8 90 1.1 SSW 7 9 4 5 1010.4 - 0.0
20/05:00am 23.3 26.2 21.8 91 1.0 SW 9 11 5 6 1010.1 - 0.0
20/04:30am 23.7 26.6 21.7 88 1.3 SW 9 9 5 5 1009.9 - 0.0
20/04:00am 24.4 27.6 22.3 88 1.4 SSW 9 11 5 6 1009.8 - 0.0
20/03:30am 24.2 27.2 21.9 87 1.5 WSW 9 11 5 6 1009.7 - 0.0
20/03:00am 25.2 27.7 22.5 85 1.8 W 13 15 7 8 1009.7 1009.6 0.0
20/02:30am 25.6 28.5 22.5 83 2.1 W 11 15 6 8 1009.7 - 0.0
20/02:00am 26.2 27.9 22.3 79 2.6 W 17 22 9 12 1009.6 - 0.0
20/01:30am 26.6 28.0 22.5 78 2.8 W 19 24 10 13 1009.7 - 0.0
20/01:00am 26.8 27.9 21.9 74 3.3 WNW 19 22 10 12 1009.9 - 0.0
20/12:30am 26.9 27.9 21.0 70 3.9 WNW 17 24 9 13 1010.2 - 0.0
20/12:00am 27.2 27.5 20.8 68 4.2 WNW 20 26 11 14 1010.6 1010.5 0.0
 
Date/Time
WST
Temp
°C
App
Temp
°C
Dew
Point
Rel
Hum
%
Delta-T
°C
Wind Press
QNH
hPa
Press
MSL
hPa
Rain
since 9 am
mm
Dir
 
Spd
km/h
Gust
km/h
Spd
kts
Gust
kts
19/11:30pm 27.3 27.9 21.4 70 3.9 WNW 20 26 11 14 1010.9 - 0.0
19/11:00pm 27.5 28.3 21.7 70 3.9 WNW 20 28 11 15 1011.0 - 0.0
19/10:30pm 27.7 28.2 21.2 67 4.3 WNW 20 28 11 15 1011.0 - 0.0
19/10:00pm 27.7 28.3 21.1 67 4.4 WNW 19 24 10 13 1011.2 - 0.0
19/09:30pm 27.8 28.7 20.8 65 4.6 WNW 17 20 9 11 1011.2 - 0.0
19/09:00pm 27.8 28.5 21.2 67 4.4 WNW 19 22 10 12 1010.9 1010.8 0.0
19/08:30pm 28.0 28.7 21.2 66 4.5 NW 19 24 10 13 1010.7 - 0.0
19/08:00pm 28.3 28.8 21.2 65 4.7 WNW 20 26 11 14 1010.6 - 0.0
19/07:30pm 28.5 29.1 21.3 65 4.8 NW 20 26 11 14 1010.5 - 0.0
19/07:00pm 28.9 28.8 21.4 64 5.0 WNW 24 32 13 17 1010.2 - 0.0
19/06:30pm 29.5 28.8 20.3 57 6.1 WNW 24 32 13 17 1009.8 - 0.0
19/06:00pm 30.7 29.3 19.6 51 7.3 WNW 26 32 14 17 1009.4 1009.3 0.0
19/05:30pm 31.8 29.4 18.2 44 8.8 NW 28 35 15 19 1009.0 - 0.0
19/05:00pm 32.9 30.3 17.9 41 9.7 NW 28 33 15 18 1008.9 - 0.0

Other Formats:

Comma delimited format used in spreadsheet applications
http://www.bom.gov.au/fwo/IDW60801/IDW60801.94312.axf

JavaScript Object Notation format (JSON) in row-major order
http://www.bom.gov.au/fwo/IDW60801/IDW60801.94312.json